sensor_id;sensor_type;location;lat;lon;timestamp;pressure;altitude;pressure_sealevel;temperature;humidity
84190;BME280;74321;53.406;8.146;2024-03-25T00:00:41;100411.91;;;3.91;100.00
84190;BME280;74321;53.406;8.146;2024-03-25T00:05:41;100438.78;;;3.82;100.00
84190;BME280;74321;53.406;8.146;2024-03-25T00:10:42;100437.66;;;3.66;100.00
84190;BME280;74321;53.406;8.146;2024-03-25T00:15:43;100427.28;;;3.54;100.00
84190;BME280;74321;53.406;8.146;2024-03-25T00:20:44;100447.16;;;3.32;100.00
84190;BME280;74321;53.406;8.146;2024-03-25T00:25:45;100462.22;;;3.25;100.00
84190;BME280;74321;53.406;8.146;2024-03-25T00:30:46;100454.63;;;2.86;100.00
84190;BME280;74321;53.406;8.146;2024-03-25T00:35:47;100451.84;;;2.73;100.00
84190;BME280;74321;53.406;8.146;2024-03-25T00:40:48;100469.59;;;2.75;100.00
84190;BME280;74321;53.406;8.146;2024-03-25T00:45:48;100456.69;;;2.64;100.00
84190;BME280;74321;53.406;8.146;2024-03-25T00:50:49;100483.53;;;2.97;100.00
84190;BME280;74321;53.406;8.146;2024-03-25T00:55:50;100465.31;;;3.13;100.00
84190;BME280;74321;53.406;8.146;2024-03-25T01:00:52;100468.44;;;3.41;100.00
84190;BME280;74321;53.406;8.146;2024-03-25T01:05:53;100472.22;;;3.64;100.00
84190;BME280;74321;53.406;8.146;2024-03-25T01:10:53;100462.22;;;3.70;100.00
84190;BME280;74321;53.406;8.146;2024-03-25T01:15:54;100454.91;;;3.40;100.00
84190;BME280;74321;53.406;8.146;2024-03-25T01:20:55;100454.00;;;3.38;100.00
84190;BME280;74321;53.406;8.146;2024-03-25T01:25:56;100454.09;;;3.41;100.00
84190;BME280;74321;53.406;8.146;2024-03-25T01:30:57;100444.66;;;3.34;100.00
84190;BME280;74321;53.406;8.146;2024-03-25T01:35:58;100460.88;;;3.44;100.00
84190;BME280;74321;53.406;8.146;2024-03-25T01:41:09;100471.25;;;3.56;100.00
84190;BME280;74321;53.406;8.146;2024-03-25T01:46:10;100473.66;;;3.50;100.00
84190;BME280;74321;53.406;8.146;2024-03-25T01:51:13;100459.06;;;3.38;100.00
84190;BME280;74321;53.406;8.146;2024-03-25T01:56:16;100474.25;;;3.36;100.00
84190;BME280;74321;53.406;8.146;2024-03-25T02:01:18;100483.53;;;3.36;100.00
84190;BME280;74321;53.406;8.146;2024-03-25T02:06:21;100476.53;;;3.23;100.00
84190;BME280;74321;53.406;8.146;2024-03-25T02:11:22;100482.28;;;3.16;100.00
84190;BME280;74321;53.406;8.146;2024-03-25T02:16:24;100482.31;;;3.19;100.00
84190;BME280;74321;53.406;8.146;2024-03-25T02:21:25;100483.22;;;3.21;100.00
84190;BME280;74321;53.406;8.146;2024-03-25T02:26:27;100474.00;;;3.23;100.00
84190;BME280;74321;53.406;8.146;2024-03-25T02:31:29;100482.81;;;3.42;100.00
84190;BME280;74321;53.406;8.146;2024-03-25T02:36:29;100497.50;;;3.59;100.00
84190;BME280;74321;53.406;8.146;2024-03-25T02:41:31;100494.59;;;3.40;100.00
84190;BME280;74321;53.406;8.146;2024-03-25T02:46:32;100497.81;;;3.32;100.00
84190;BME280;74321;53.406;8.146;2024-03-25T02:51:34;100507.31;;;3.44;100.00
84190;BME280;74321;53.406;8.146;2024-03-25T02:56:35;100509.16;;;3.51;100.00
84190;BME280;74321;53.406;8.146;2024-03-25T03:01:36;100510.13;;;3.58;100.00
84190;BME280;74321;53.406;8.146;2024-03-25T03:06:37;100508.34;;;3.54;100.00
84190;BME280;74321;53.406;8.146;2024-03-25T03:11:37;100507.31;;;3.44;100.00
84190;BME280;74321;53.406;8.146;2024-03-25T03:16:38;100480.66;;;3.19;100.00
84190;BME280;74321;53.406;8.146;2024-03-25T03:21:39;100520.75;;;3.40;100.00
84190;BME280;74321;53.406;8.146;2024-03-25T03:26:40;100533.69;;;3.54;100.00
84190;BME280;74321;53.406;8.146;2024-03-25T03:31:41;100528.47;;;3.46;100.00
84190;BME280;74321;53.406;8.146;2024-03-25T03:36:42;100537.63;;;3.40;100.00
84190;BME280;74321;53.406;8.146;2024-03-25T03:41:43;100544.78;;;3.18;100.00
84190;BME280;74321;53.406;8.146;2024-03-25T03:46:43;100547.72;;;2.99;100.00
84190;BME280;74321;53.406;8.146;2024-03-25T03:51:44;100539.44;;;3.06;100.00
84190;BME280;74321;53.406;8.146;2024-03-25T03:56:45;100535.53;;;3.20;100.00
84190;BME280;74321;53.406;8.146;2024-03-25T04:01:46;100532.97;;;3.19;100.00
84190;BME280;74321;53.406;8.146;2024-03-25T04:06:47;100542.94;;;3.13;100.00
84190;BME280;74321;53.406;8.146;2024-03-25T04:11:47;100543.78;;;3.12;100.00
84190;BME280;74321;53.406;8.146;2024-03-25T04:16:48;100536.56;;;2.91;100.00
84190;BME280;74321;53.406;8.146;2024-03-25T04:21:49;100538.38;;;2.60;100.00
84190;BME280;74321;53.406;8.146;2024-03-25T04:26:50;100538.06;;;2.48;100.00
84190;BME280;74321;53.406;8.146;2024-03-25T04:31:51;100560.31;;;2.61;100.00
84190;BME280;74321;53.406;8.146;2024-03-25T04:36:51;100563.31;;;2.81;100.00
84190;BME280;74321;53.406;8.146;2024-03-25T04:41:54;100556.09;;;2.96;100.00
84190;BME280;74321;53.406;8.146;2024-03-25T04:46:54;100563.97;;;3.08;100.00
84190;BME280;74321;53.406;8.146;2024-03-25T04:51:55;100548.47;;;2.95;100.00
84190;BME280;74321;53.406;8.146;2024-03-25T04:56:56;100555.59;;;2.75;100.00
84190;BME280;74321;53.406;8.146;2024-03-25T05:01:57;100600.16;;;2.70;100.00
84190;BME280;74321;53.406;8.146;2024-03-25T05:06:58;100605.88;;;2.63;100.00
84190;BME280;74321;53.406;8.146;2024-03-25T05:11:59;100614.69;;;2.44;100.00
84190;BME280;74321;53.406;8.146;2024-03-25T05:17:00;100613.22;;;2.87;100.00
84190;BME280;74321;53.406;8.146;2024-03-25T05:22:03;100600.91;;;3.00;100.00
84190;BME280;74321;53.406;8.146;2024-03-25T05:27:03;100595.72;;;2.96;100.00
84190;BME280;74321;53.406;8.146;2024-03-25T05:32:05;100620.63;;;2.79;100.00
84190;BME280;74321;53.406;8.146;2024-03-25T05:37:06;100615.28;;;2.67;100.00
84190;BME280;74321;53.406;8.146;2024-03-25T05:42:07;100623.56;;;2.61;100.00
84190;BME280;74321;53.406;8.146;2024-03-25T05:47:08;100628.16;;;2.76;100.00
84190;BME280;74321;53.406;8.146;2024-03-25T05:52:09;100610.16;;;2.98;100.00
84190;BME280;74321;53.406;8.146;2024-03-25T05:57:09;100635.44;;;3.34;100.00
84190;BME280;74321;53.406;8.146;2024-03-25T06:02:10;100615.59;;;3.54;100.00
84190;BME280;74321;53.406;8.146;2024-03-25T06:07:11;100629.69;;;3.81;100.00
84190;BME280;74321;53.406;8.146;2024-03-25T06:12:12;100646.25;;;4.06;100.00
84190;BME280;74321;53.406;8.146;2024-03-25T06:17:13;100640.28;;;4.04;100.00
84190;BME280;74321;53.406;8.146;2024-03-25T06:22:15;100651.59;;;4.21;100.00
84190;BME280;74321;53.406;8.146;2024-03-25T06:27:17;100650.88;;;4.27;100.00
84190;BME280;74321;53.406;8.146;2024-03-25T06:32:18;100648.38;;;4.30;100.00
84190;BME280;74321;53.406;8.146;2024-03-25T06:37:37;100638.53;;;4.45;100.00
84190;BME280;74321;53.406;8.146;2024-03-25T06:42:38;100654.13;;;4.65;100.00
84190;BME280;74321;53.406;8.146;2024-03-25T06:47:39;100670.38;;;4.76;100.00
84190;BME280;74321;53.406;8.146;2024-03-25T06:52:40;100666.31;;;4.86;100.00
84190;BME280;74321;53.406;8.146;2024-03-25T06:57:41;100683.41;;;4.96;100.00
84190;BME280;74321;53.406;8.146;2024-03-25T07:02:42;100681.81;;;5.01;100.00
84190;BME280;74321;53.406;8.146;2024-03-25T07:07:42;100694.78;;;5.18;100.00
84190;BME280;74321;53.406;8.146;2024-03-25T07:12:43;100685.84;;;5.41;100.00
84190;BME280;74321;53.406;8.146;2024-03-25T07:17:44;100684.13;;;5.98;100.00
84190;BME280;74321;53.406;8.146;2024-03-25T07:22:45;100688.00;;;6.41;100.00
84190;BME280;74321;53.406;8.146;2024-03-25T07:27:46;100694.97;;;6.57;100.00
84190;BME280;74321;53.406;8.146;2024-03-25T07:32:47;100695.88;;;5.91;100.00
84190;BME280;74321;53.406;8.146;2024-03-25T07:37:48;100698.63;;;6.06;100.00
84190;BME280;74321;53.406;8.146;2024-03-25T07:42:52;100685.84;;;6.02;100.00
84190;BME280;74321;53.406;8.146;2024-03-25T07:47:52;100703.63;;;6.71;100.00
84190;BME280;74321;53.406;8.146;2024-03-25T07:52:54;100701.41;;;7.08;100.00
84190;BME280;74321;53.406;8.146;2024-03-25T07:57:54;100699.03;;;7.32;100.00
84190;BME280;74321;53.406;8.146;2024-03-25T08:02:55;100688.41;;;8.02;100.00
84190;BME280;74321;53.406;8.146;2024-03-25T08:07:56;100703.00;;;8.32;100.00
84190;BME280;74321;53.406;8.146;2024-03-25T08:12:57;100702.28;;;8.65;100.00
84190;BME280;74321;53.406;8.146;2024-03-25T08:17:58;100702.97;;;8.25;100.00
84190;BME280;74321;53.406;8.146;2024-03-25T08:22:59;100714.00;;;8.16;100.00
84190;BME280;74321;53.406;8.146;2024-03-25T08:27:59;100704.69;;;10.24;100.00
84190;BME280;74321;53.406;8.146;2024-03-25T08:33:00;100709.44;;;10.94;100.00
84190;BME280;74321;53.406;8.146;2024-03-25T08:38:01;100710.25;;;11.95;100.00
84190;BME280;74321;53.406;8.146;2024-03-25T08:43:02;100711.63;;;12.23;100.00
84190;BME280;74321;53.406;8.146;2024-03-25T08:48:03;100720.88;;;10.32;100.00
84190;BME280;74321;53.406;8.146;2024-03-25T08:53:04;100731.28;;;9.51;100.00
84190;BME280;74321;53.406;8.146;2024-03-25T08:58:05;100714.16;;;8.48;100.00
84190;BME280;74321;53.406;8.146;2024-03-25T09:03:06;100711.69;;;8.80;100.00
84190;BME280;74321;53.406;8.146;2024-03-25T09:08:07;100711.28;;;10.73;100.00
84190;BME280;74321;53.406;8.146;2024-03-25T09:13:08;100701.50;;;12.11;100.00
84190;BME280;74321;53.406;8.146;2024-03-25T09:18:12;100732.00;;;10.34;100.00
84190;BME280;74321;53.406;8.146;2024-03-25T09:23:14;100723.59;;;9.85;100.00
84190;BME280;74321;53.406;8.146;2024-03-25T09:28:15;100721.78;;;10.19;100.00
84190;BME280;74321;53.406;8.146;2024-03-25T09:33:15;100721.03;;;9.74;100.00
84190;BME280;74321;53.406;8.146;2024-03-25T09:38:16;100714.25;;;9.09;100.00
84190;BME280;74321;53.406;8.146;2024-03-25T09:43:27;100734.69;;;8.86;100.00
84190;BME280;74321;53.406;8.146;2024-03-25T09:48:30;100727.91;;;9.52;100.00
84190;BME280;74321;53.406;8.146;2024-03-25T09:53:31;100737.25;;;9.60;100.00
84190;BME280;74321;53.406;8.146;2024-03-25T09:58:32;100740.63;;;9.81;100.00
84190;BME280;74321;53.406;8.146;2024-03-25T10:03:34;100737.28;;;9.20;100.00
84190;BME280;74321;53.406;8.146;2024-03-25T10:08:35;100751.75;;;9.24;100.00
84190;BME280;74321;53.406;8.146;2024-03-25T10:13:37;100729.59;;;9.00;100.00
84190;BME280;74321;53.406;8.146;2024-03-25T10:18:38;100751.78;;;9.19;100.00
84190;BME280;74321;53.406;8.146;2024-03-25T10:23:40;100743.25;;;9.19;100.00
84190;BME280;74321;53.406;8.146;2024-03-25T10:28:42;100742.38;;;9.12;100.00
84190;BME280;74321;53.406;8.146;2024-03-25T10:33:43;100729.59;;;9.61;100.00
84190;BME280;74321;53.406;8.146;2024-03-25T10:38:45;100757.38;;;10.79;100.00
84190;BME280;74321;53.406;8.146;2024-03-25T10:43:47;100745.69;;;10.13;100.00
84190;BME280;74321;53.406;8.146;2024-03-25T10:48:54;100749.75;;;11.81;100.00
84190;BME280;74321;53.406;8.146;2024-03-25T10:53:59;100743.09;;;10.30;100.00
84190;BME280;74321;53.406;8.146;2024-03-25T10:59:01;100749.97;;;10.01;100.00
84190;BME280;74321;53.406;8.146;2024-03-25T11:04:03;100747.47;;;9.82;100.00
84190;BME280;74321;53.406;8.146;2024-03-25T11:09:05;100730.44;;;9.25;100.00
84190;BME280;74321;53.406;8.146;2024-03-25T11:14:15;100733.88;;;9.30;100.00
84190;BME280;74321;53.406;8.146;2024-03-25T11:19:17;100721.94;;;9.15;100.00
84190;BME280;74321;53.406;8.146;2024-03-25T11:24:37;100729.44;;;10.30;100.00
84190;BME280;74321;53.406;8.146;2024-03-25T11:29:38;100712.94;;;10.80;100.00
84190;BME280;74321;53.406;8.146;2024-03-25T11:34:49;100719.25;;;10.04;100.00
84190;BME280;74321;53.406;8.146;2024-03-25T11:40:01;100703.72;;;10.50;100.00
84190;BME280;74321;53.406;8.146;2024-03-25T11:45:07;100720.91;;;10.22;100.00
84190;BME280;74321;53.406;8.146;2024-03-25T11:50:17;100713.28;;;10.03;100.00
84190;BME280;74321;53.406;8.146;2024-03-25T11:55:18;100720.91;;;10.20;100.00
84190;BME280;74321;53.406;8.146;2024-03-25T12:00:19;100702.13;;;10.24;100.00
84190;BME280;74321;53.406;8.146;2024-03-25T12:05:20;100701.47;;;9.43;100.00
84190;BME280;74321;53.406;8.146;2024-03-25T12:10:21;100688.63;;;9.72;100.00
84190;BME280;74321;53.406;8.146;2024-03-25T12:15:40;100681.53;;;10.47;100.00
84190;BME280;74321;53.406;8.146;2024-03-25T12:20:42;100686.56;;;11.68;100.00
84190;BME280;74321;53.406;8.146;2024-03-25T12:25:51;100665.47;;;14.61;100.00
84190;BME280;74321;53.406;8.146;2024-03-25T12:30:54;100667.66;;;15.80;100.00
84190;BME280;74321;53.406;8.146;2024-03-25T12:35:56;100676.41;;;12.33;100.00
84190;BME280;74321;53.406;8.146;2024-03-25T12:41:08;100661.50;;;11.04;100.00
84190;BME280;74321;53.406;8.146;2024-03-25T12:46:09;100662.94;;;10.04;100.00
84190;BME280;74321;53.406;8.146;2024-03-25T12:51:14;100651.47;;;10.74;100.00
84190;BME280;74321;53.406;8.146;2024-03-25T12:56:16;100655.03;;;10.50;100.00
84190;BME280;74321;53.406;8.146;2024-03-25T13:01:16;100654.34;;;10.23;100.00
84190;BME280;74321;53.406;8.146;2024-03-25T13:06:18;100658.59;;;10.17;100.00
84190;BME280;74321;53.406;8.146;2024-03-25T13:11:18;100660.19;;;10.51;100.00
84190;BME280;74321;53.406;8.146;2024-03-25T13:16:19;100641.16;;;10.81;100.00
84190;BME280;74321;53.406;8.146;2024-03-25T13:21:20;100638.25;;;14.85;100.00
84190;BME280;74321;53.406;8.146;2024-03-25T13:26:21;100631.97;;;12.26;100.00
84190;BME280;74321;53.406;8.146;2024-03-25T13:31:23;100639.16;;;13.14;100.00
84190;BME280;74321;53.406;8.146;2024-03-25T13:36:24;100628.63;;;11.44;100.00
84190;BME280;74321;53.406;8.146;2024-03-25T13:41:25;100630.19;;;10.64;100.00
84190;BME280;74321;53.406;8.146;2024-03-25T13:46:26;100627.06;;;10.11;100.00
84190;BME280;74321;53.406;8.146;2024-03-25T13:51:27;100632.91;;;10.44;100.00
84190;BME280;74321;53.406;8.146;2024-03-25T13:56:29;100612.50;;;10.20;100.00
84190;BME280;74321;53.406;8.146;2024-03-25T14:01:29;100636.66;;;9.53;100.00
84190;BME280;74321;53.406;8.146;2024-03-25T14:06:30;100638.97;;;10.17;100.00
84190;BME280;74321;53.406;8.146;2024-03-25T14:11:33;100636.50;;;10.03;100.00
84190;BME280;74321;53.406;8.146;2024-03-25T14:16:34;100637.25;;;10.21;100.00
84190;BME280;74321;53.406;8.146;2024-03-25T14:21:35;100600.69;;;9.91;100.00
84190;BME280;74321;53.406;8.146;2024-03-25T14:26:36;100628.06;;;9.80;100.00
84190;BME280;74321;53.406;8.146;2024-03-25T14:31:37;100621.41;;;8.89;100.00
84190;BME280;74321;53.406;8.146;2024-03-25T14:36:37;100613.75;;;8.80;100.00
84190;BME280;74321;53.406;8.146;2024-03-25T14:41:39;100623.78;;;11.15;100.00
84190;BME280;74321;53.406;8.146;2024-03-25T14:46:40;100608.28;;;10.12;100.00
84190;BME280;74321;53.406;8.146;2024-03-25T14:51:41;100611.19;;;8.86;100.00
84190;BME280;74321;53.406;8.146;2024-03-25T14:56:42;100605.09;;;8.13;100.00
84190;BME280;74321;53.406;8.146;2024-03-25T15:01:43;100611.84;;;8.01;100.00
84190;BME280;74321;53.406;8.146;2024-03-25T15:06:44;100620.41;;;8.12;100.00
84190;BME280;74321;53.406;8.146;2024-03-25T15:11:45;100619.50;;;7.99;100.00
84190;BME280;74321;53.406;8.146;2024-03-25T15:16:46;100610.88;;;7.64;100.00
84190;BME280;74321;53.406;8.146;2024-03-25T15:21:47;100602.25;;;7.43;100.00
84190;BME280;74321;53.406;8.146;2024-03-25T15:26:48;100618.56;;;7.74;100.00
84190;BME280;74321;53.406;8.146;2024-03-25T15:31:49;100575.91;;;7.40;100.00
84190;BME280;74321;53.406;8.146;2024-03-25T15:36:49;100601.28;;;7.26;100.00
84190;BME280;74321;53.406;8.146;2024-03-25T15:41:53;100588.56;;;7.26;100.00
84190;BME280;74321;53.406;8.146;2024-03-25T15:46:54;100586.00;;;7.26;100.00
84190;BME280;74321;53.406;8.146;2024-03-25T15:51:55;100578.41;;;7.35;100.00
84190;BME280;74321;53.406;8.146;2024-03-25T15:56:55;100563.25;;;7.63;100.00
84190;BME280;74321;53.406;8.146;2024-03-25T16:01:56;100575.97;;;7.59;100.00
84190;BME280;74321;53.406;8.146;2024-03-25T16:06:57;100565.75;;;7.47;100.00
84190;BME280;74321;53.406;8.146;2024-03-25T16:11:59;100541.81;;;7.22;100.00
84190;BME280;74321;53.406;8.146;2024-03-25T16:17:00;100553.72;;;7.20;100.00
84190;BME280;74321;53.406;8.146;2024-03-25T16:22:01;100538.34;;;7.07;100.00
84190;BME280;74321;53.406;8.146;2024-03-25T16:27:01;100560.31;;;6.91;100.00
84190;BME280;74321;53.406;8.146;2024-03-25T16:32:03;100557.75;;;6.92;100.00
84190;BME280;74321;53.406;8.146;2024-03-25T16:37:04;100567.22;;;7.06;100.00
84190;BME280;74321;53.406;8.146;2024-03-25T16:42:05;100561.16;;;6.93;100.00
84190;BME280;74321;53.406;8.146;2024-03-25T16:47:06;100544.78;;;6.62;100.00
84190;BME280;74321;53.406;8.146;2024-03-25T16:52:07;100561.66;;;6.47;100.00
84190;BME280;74321;53.406;8.146;2024-03-25T16:57:08;100553.75;;;6.17;100.00
84190;BME280;74321;53.406;8.146;2024-03-25T17:02:09;100545.94;;;6.00;100.00
84190;BME280;74321;53.406;8.146;2024-03-25T17:07:10;100554.97;;;5.77;100.00
84190;BME280;74321;53.406;8.146;2024-03-25T17:12:11;100556.44;;;5.55;100.00
84190;BME280;74321;53.406;8.146;2024-03-25T17:17:11;100559.50;;;5.32;100.00
84190;BME280;74321;53.406;8.146;2024-03-25T17:22:12;100551.56;;;5.10;100.00
84190;BME280;74321;53.406;8.146;2024-03-25T17:27:13;100552.28;;;4.99;100.00
84190;BME280;74321;53.406;8.146;2024-03-25T17:32:14;100562.25;;;4.87;100.00
84190;BME280;74321;53.406;8.146;2024-03-25T17:37:15;100541.47;;;4.55;100.00
84190;BME280;74321;53.406;8.146;2024-03-25T17:42:16;100554.22;;;4.61;100.00
84190;BME280;74321;53.406;8.146;2024-03-25T17:47:17;100553.94;;;4.43;100.00
84190;BME280;74321;53.406;8.146;2024-03-25T17:52:18;100550.53;;;4.42;100.00
84190;BME280;74321;53.406;8.146;2024-03-25T17:57:19;100547.88;;;3.88;100.00
84190;BME280;74321;53.406;8.146;2024-03-25T18:02:21;100544.25;;;3.75;100.00
84190;BME280;74321;53.406;8.146;2024-03-25T18:07:22;100545.31;;;3.88;100.00
84190;BME280;74321;53.406;8.146;2024-03-25T18:12:23;100558.63;;;3.76;100.00
84190;BME280;74321;53.406;8.146;2024-03-25T18:17:24;100547.16;;;3.51;100.00
84190;BME280;74321;53.406;8.146;2024-03-25T18:22:25;100551.41;;;3.54;100.00
84190;BME280;74321;53.406;8.146;2024-03-25T18:27:25;100552.84;;;3.40;100.00
84190;BME280;74321;53.406;8.146;2024-03-25T18:32:26;100544.94;;;3.26;100.00
84190;BME280;74321;53.406;8.146;2024-03-25T18:37:28;100540.09;;;3.36;100.00
84190;BME280;74321;53.406;8.146;2024-03-25T18:42:29;100546.19;;;3.46;100.00
84190;BME280;74321;53.406;8.146;2024-03-25T18:47:29;100511.06;;;3.21;100.00
84190;BME280;74321;53.406;8.146;2024-03-25T18:52:30;100534.59;;;3.15;100.00
84190;BME280;74321;53.406;8.146;2024-03-25T18:57:31;100554.50;;;3.00;100.00
84190;BME280;74321;53.406;8.146;2024-03-25T19:02:33;100535.44;;;2.78;100.00
84190;BME280;74321;53.406;8.146;2024-03-25T19:07:33;100520.50;;;2.52;100.00
84190;BME280;74321;53.406;8.146;2024-03-25T19:12:34;100510.13;;;2.42;100.00
84190;BME280;74321;53.406;8.146;2024-03-25T19:17:35;100512.50;;;2.36;100.00
84190;BME280;74321;53.406;8.146;2024-03-25T19:22:36;100528.72;;;2.44;100.00
84190;BME280;74321;53.406;8.146;2024-03-25T19:27:37;100527.94;;;2.46;100.00
84190;BME280;74321;53.406;8.146;2024-03-25T19:32:38;100522.66;;;2.37;100.00
84190;BME280;74321;53.406;8.146;2024-03-25T19:37:39;100516.88;;;2.08;100.00
84190;BME280;74321;53.406;8.146;2024-03-25T19:42:40;100526.50;;;1.90;100.00
84190;BME280;74321;53.406;8.146;2024-03-25T19:47:41;100511.72;;;1.74;100.00
84190;BME280;74321;53.406;8.146;2024-03-25T19:52:42;100517.09;;;1.84;100.00
84190;BME280;74321;53.406;8.146;2024-03-25T19:57:43;100518.22;;;1.64;100.00
84190;BME280;74321;53.406;8.146;2024-03-25T20:02:44;100530.56;;;1.53;100.00
84190;BME280;74321;53.406;8.146;2024-03-25T20:07:44;100520.41;;;1.52;100.00
84190;BME280;74321;53.406;8.146;2024-03-25T20:12:45;100527.81;;;1.46;100.00
84190;BME280;74321;53.406;8.146;2024-03-25T20:17:47;100522.91;;;1.22;100.00
84190;BME280;74321;53.406;8.146;2024-03-25T20:22:49;100507.28;;;1.05;100.00
84190;BME280;74321;53.406;8.146;2024-03-25T20:27:50;100515.16;;;1.16;100.00
84190;BME280;74321;53.406;8.146;2024-03-25T20:32:51;100529.94;;;1.32;100.00
84190;BME280;74321;53.406;8.146;2024-03-25T20:37:53;100522.91;;;1.22;100.00
84190;BME280;74321;53.406;8.146;2024-03-25T20:42:54;100519.41;;;1.17;100.00
84190;BME280;74321;53.406;8.146;2024-03-25T20:47:55;100512.56;;;1.12;100.00
84190;BME280;74321;53.406;8.146;2024-03-25T20:52:56;100519.66;;;0.97;100.00
84190;BME280;74321;53.406;8.146;2024-03-25T20:57:57;100504.91;;;0.82;100.00
84190;BME280;74321;53.406;8.146;2024-03-25T21:02:58;100523.81;;;0.95;100.00
84190;BME280;74321;53.406;8.146;2024-03-25T21:07:59;100513.34;;;1.10;100.00
84190;BME280;74321;53.406;8.146;2024-03-25T21:12:59;100511.28;;;1.27;100.00
84190;BME280;74321;53.406;8.146;2024-03-25T21:18:00;100521.91;;;1.75;100.00
84190;BME280;74321;53.406;8.146;2024-03-25T21:23:01;100495.28;;;1.88;100.00
84190;BME280;74321;53.406;8.146;2024-03-25T21:28:02;100508.50;;;2.11;100.00
84190;BME280;74321;53.406;8.146;2024-03-25T21:33:03;100500.91;;;2.09;100.00
84190;BME280;74321;53.406;8.146;2024-03-25T21:38:05;100505.66;;;1.98;100.00
84190;BME280;74321;53.406;8.146;2024-03-25T21:43:09;100493.41;;;1.81;100.00
84190;BME280;74321;53.406;8.146;2024-03-25T21:48:10;100486.31;;;1.66;100.00
84190;BME280;74321;53.406;8.146;2024-03-25T21:53:11;100481.03;;;1.58;100.00
84190;BME280;74321;53.406;8.146;2024-03-25T21:58:11;100484.25;;;2.17;100.00
84190;BME280;74321;53.406;8.146;2024-03-25T22:03:12;100478.63;;;1.94;100.00
84190;BME280;74321;53.406;8.146;2024-03-25T22:08:13;100456.28;;;1.77;100.00
84190;BME280;74321;53.406;8.146;2024-03-25T22:13:14;100467.72;;;1.97;100.00
84190;BME280;74321;53.406;8.146;2024-03-25T22:18:15;100463.53;;;1.97;100.00
84190;BME280;74321;53.406;8.146;2024-03-25T22:23:15;100442.38;;;1.94;100.00
84190;BME280;74321;53.406;8.146;2024-03-25T22:28:16;100447.41;;;1.92;100.00
84190;BME280;74321;53.406;8.146;2024-03-25T22:33:17;100419.22;;;1.77;100.00
84190;BME280;74321;53.406;8.146;2024-03-25T22:38:18;100449.09;;;1.92;100.00
84190;BME280;74321;53.406;8.146;2024-03-25T22:43:22;100447.00;;;2.10;100.00
84190;BME280;74321;53.406;8.146;2024-03-25T22:48:23;100440.88;;;2.37;100.00
84190;BME280;74321;53.406;8.146;2024-03-25T22:53:25;100451.38;;;2.16;100.00
84190;BME280;74321;53.406;8.146;2024-03-25T22:58:27;100438.22;;;1.96;100.00
84190;BME280;74321;53.406;8.146;2024-03-25T23:03:28;100426.44;;;1.96;100.00
84190;BME280;74321;53.406;8.146;2024-03-25T23:08:30;100434.34;;;2.09;100.00
84190;BME280;74321;53.406;8.146;2024-03-25T23:13:31;100422.75;;;1.82;100.00
84190;BME280;74321;53.406;8.146;2024-03-25T23:18:32;100400.59;;;1.74;100.00
84190;BME280;74321;53.406;8.146;2024-03-25T23:23:32;100412.50;;;1.78;100.00
84190;BME280;74321;53.406;8.146;2024-03-25T23:28:33;100402.56;;;1.84;100.00
84190;BME280;74321;53.406;8.146;2024-03-25T23:33:34;100385.25;;;1.99;100.00
84190;BME280;74321;53.406;8.146;2024-03-25T23:38:35;100376.78;;;1.98;100.00
84190;BME280;74321;53.406;8.146;2024-03-25T23:43:36;100364.72;;;1.85;100.00
84190;BME280;74321;53.406;8.146;2024-03-25T23:48:36;100365.47;;;2.17;100.00
84190;BME280;74321;53.406;8.146;2024-03-25T23:53:37;100369.06;;;2.29;100.00
84190;BME280;74321;53.406;8.146;2024-03-25T23:58:38;100357.03;;;2.17;100.00
